Time;durP1;ratioP1;P1;durP2;ratioP2;P2;SDS_P1;SDS_P2;PMS_P1;PMS_P2;Temp;Humidity;BMP_temperature;BMP_pressure;BME280_temperature;BME280_humidity;BME280_pressure;Samples;Min_cycle;Max_cycle;Signal;HPM_P1;HPM_P2
2021/06/06 00:01:40;;;;;;;;;12.50;11.50;;;;;18.25;55.10;102235.00;5062816;28;45479;-79
2021/06/06 00:04:12;;;;;;;;;11.25;11.00;;;;;18.23;55.14;102231.47;5072693;28;45439;-78
2021/06/06 00:06:39;;;;;;;;;11.25;10.25;;;;;18.24;54.71;102223.63;5071970;28;45205;-78
2021/06/06 00:09:12;;;;;;;;;12.50;12.50;;;;;18.29;55.00;102223.81;5068241;28;45397;-83
2021/06/06 00:11:42;;;;;;;;;10.50;10.50;;;;;18.22;54.90;102220.06;5064571;28;45465;-79
2021/06/06 00:14:13;;;;;;;;;12.00;10.75;;;;;18.17;54.88;102221.66;5062693;28;46302;-79
2021/06/06 00:16:44;;;;;;;;;13.50;11.75;;;;;18.20;54.78;102226.09;5062264;27;45370;-78
2021/06/06 00:19:10;;;;;;;;;8.50;7.75;;;;;18.21;54.85;102225.25;5063006;28;45604;-81
2021/06/06 00:21:37;;;;;;;;;12.00;9.50;;;;;18.18;54.87;102226.06;5062024;28;45431;-78
2021/06/06 00:24:06;;;;;;;;;10.00;10.00;;;;;18.13;54.74;102231.97;5061077;28;45376;-79
2021/06/06 00:26:31;;;;;;;;;9.50;9.50;;;;;18.16;54.80;102232.97;5062631;28;45441;-84
2021/06/06 00:28:57;;;;;;;;;11.25;11.25;;;;;18.08;54.49;102234.41;5062943;28;45444;-79
2021/06/06 00:31:23;;;;;;;;;11.00;11.00;;;;;17.91;54.64;102234.63;5062647;28;45521;-78
2021/06/06 00:33:49;;;;;;;;;9.25;8.00;;;;;17.83;54.76;102230.84;5062311;28;45649;-80
2021/06/06 00:36:17;;;;;;;;;10.50;10.50;;;;;17.81;55.00;102227.28;5062796;28;45803;-80
2021/06/06 00:38:42;;;;;;;;;9.00;7.75;;;;;17.81;54.77;102226.38;5062768;27;45330;-83
2021/06/06 00:41:10;;;;;;;;;8.00;7.75;;;;;17.81;54.62;102224.66;5063576;28;45718;-82
2021/06/06 00:43:35;;;;;;;;;8.50;7.50;;;;;17.78;54.91;102221.91;5061728;28;46558;-81
2021/06/06 00:46:02;;;;;;;;;10.75;8.25;;;;;17.81;55.02;102213.28;5064351;28;45644;-83
2021/06/06 00:48:27;;;;;;;;;10.00;10.00;;;;;17.76;54.71;102216.63;5064797;28;45389;-82
2021/06/06 00:50:57;;;;;;;;;9.75;9.50;;;;;17.69;54.95;102213.69;5067076;28;45313;-81
2021/06/06 00:53:42;;;;;;;;;9.00;7.75;;;;;17.68;54.86;102210.22;5065323;28;46608;-84
2021/06/06 00:56:17;;;;;;;;;9.50;8.75;;;;;17.68;54.83;102206.69;5066264;28;45663;-87
2021/06/06 00:58:44;;;;;;;;;13.75;11.50;;;;;17.60;54.55;102195.94;5065293;27;45349;-87
2021/06/06 01:01:11;;;;;;;;;10.00;8.50;;;;;17.66;55.03;102198.78;5065697;28;45320;-81
2021/06/06 01:03:38;;;;;;;;;12.00;10.50;;;;;17.68;54.90;102196.19;5064315;28;46214;-87
2021/06/06 01:06:11;;;;;;;;;9.75;8.75;;;;;17.74;54.91;102205.19;5063944;28;45662;-82
2021/06/06 01:08:40;;;;;;;;;10.00;8.75;;;;;17.73;54.85;102198.16;5061480;28;45413;-83
2021/06/06 01:11:13;;;;;;;;;12.00;11.00;;;;;17.71;54.76;102201.56;5063057;28;45339;-81
2021/06/06 01:13:45;;;;;;;;;10.50;9.75;;;;;17.69;54.95;102191.03;5068511;28;45385;-82
2021/06/06 01:16:18;;;;;;;;;9.25;9.25;;;;;17.76;54.66;102200.91;5058279;28;45450;-85
2021/06/06 01:18:49;;;;;;;;;8.50;7.25;;;;;17.60;55.18;102188.94;5060672;28;45335;-81
2021/06/06 01:21:33;;;;;;;;;8.50;8.50;;;;;17.67;54.75;102202.28;5063470;28;45514;-79
2021/06/06 01:24:19;;;;;;;;;12.25;11.50;;;;;17.61;55.00;102206.47;5076234;27;48083;-84
2021/06/06 01:26:49;;;;;;;;;9.75;9.25;;;;;17.61;54.83;102208.16;5059798;28;45363;-86
2021/06/06 01:29:27;;;;;;;;;9.50;8.50;;;;;17.56;54.85;102200.13;5059682;28;45326;-83
2021/06/06 01:31:57;;;;;;;;;10.25;10.25;;;;;17.58;55.00;102205.44;5061880;28;45477;-84
2021/06/06 01:34:25;;;;;;;;;8.50;8.00;;;;;17.41;55.01;102189.09;5061132;28;45397;-81
2021/06/06 01:37:13;;;;;;;;;8.00;7.75;;;;;17.52;54.95;102199.97;5060955;28;45346;-86
2021/06/06 01:39:51;;;;;;;;;9.50;8.25;;;;;17.46;55.02;102198.91;5060002;28;45282;-83
2021/06/06 01:42:22;;;;;;;;;7.75;6.25;;;;;17.43;54.73;102197.91;5059751;28;45260;-79
2021/06/06 01:44:52;;;;;;;;;10.00;10.00;;;;;17.31;54.79;102185.22;5058400;28;45499;-80
2021/06/06 01:47:22;;;;;;;;;9.50;7.50;;;;;17.36;54.91;102188.00;5061272;28;45301;-86
2021/06/06 01:49:52;;;;;;;;;8.00;8.00;;;;;17.22;54.89;102190.09;5060962;28;45431;-89
2021/06/06 01:52:21;;;;;;;;;7.25;7.25;;;;;17.21;55.08;102193.53;5062083;28;45353;-80
2021/06/06 01:54:48;;;;;;;;;7.75;7.25;;;;;17.16;54.91;102180.25;5064923;28;45314;-78
2021/06/06 01:57:18;;;;;;;;;7.25;6.25;;;;;17.13;54.88;102181.03;5071529;28;45137;-79
2021/06/06 01:59:50;;;;;;;;;7.25;7.25;;;;;16.94;55.05;102170.69;5078633;28;45413;-77
2021/06/06 02:02:16;;;;;;;;;8.25;8.00;;;;;16.77;55.28;102185.66;5077825;28;44686;-78
2021/06/06 02:04:42;;;;;;;;;8.75;8.25;;;;;16.52;55.86;102180.25;5067909;28;46237;-82
2021/06/06 02:07:14;;;;;;;;;9.00;9.00;;;;;16.47;56.43;102179.19;5061998;28;45181;-84
2021/06/06 02:09:53;;;;;;;;;11.25;9.25;;;;;16.33;56.26;102170.75;5067683;28;45314;-77
2021/06/06 02:12:23;;;;;;;;;10.25;8.75;;;;;16.17;56.81;102170.91;5070092;28;45382;-84
2021/06/06 02:14:49;;;;;;;;;9.00;8.75;;;;;16.28;56.64;102167.03;5063525;28;46544;-81
2021/06/06 02:17:30;;;;;;;;;11.00;9.75;;;;;16.18;57.52;102159.63;5061339;28;45292;-86
2021/06/06 02:19:59;;;;;;;;;10.00;9.00;;;;;16.20;57.58;102171.06;5060546;28;45270;-86
2021/06/06 02:22:27;;;;;;;;;11.50;9.50;;;;;16.11;57.66;102168.91;5063684;28;45207;-80
2021/06/06 02:24:53;;;;;;;;;8.00;8.00;;;;;16.27;57.19;102173.09;5059093;28;46347;-81
2021/06/06 02:27:52;;;;;;;;;10.00;9.00;;;;;16.29;57.74;102170.56;5065223;28;45508;-77
2021/06/06 02:30:24;;;;;;;;;11.50;9.25;;;;;16.32;57.26;102171.59;5073072;28;44860;-80
2021/06/06 02:33:30;;;;;;;;;11.00;9.50;;;;;16.41;57.63;102160.66;5060733;28;45346;-83
2021/06/06 02:36:03;;;;;;;;;10.25;10.25;;;;;16.50;57.15;102157.50;5058419;28;45417;-82
2021/06/06 02:38:36;;;;;;;;;9.75;9.00;;;;;16.52;57.32;102151.50;5056178;28;45567;-85
2021/06/06 02:41:16;;;;;;;;;9.50;9.25;;;;;16.59;57.33;102164.84;5058274;28;45348;-83
2021/06/06 02:43:58;;;;;;;;;9.50;8.50;;;;;16.53;57.37;102163.75;5058147;28;45439;-82
2021/06/06 02:46:26;;;;;;;;;9.00;9.00;;;;;16.60;57.40;102157.06;5057694;28;45564;-79
2021/06/06 02:48:58;;;;;;;;;11.75;11.00;;;;;16.34;57.64;102142.88;5055907;28;45426;-85
2021/06/06 02:51:26;;;;;;;;;9.25;7.75;;;;;16.40;57.57;102158.84;5057873;28;45486;-84
2021/06/06 02:54:08;;;;;;;;;9.75;9.50;;;;;16.44;57.77;102152.03;5060808;28;45476;-78
2021/06/06 02:56:39;;;;;;;;;9.00;9.00;;;;;16.44;57.59;102157.25;5058832;28;46488;-79
2021/06/06 02:59:40;;;;;;;;;12.25;11.50;;;;;16.35;57.87;102158.66;5057828;28;45908;-78
2021/06/06 03:02:14;;;;;;;;;9.50;8.75;;;;;16.34;57.81;102161.19;5034987;28;45483;-77
2021/06/06 03:04:43;;;;;;;;;8.50;7.75;;;;;16.28;58.05;102151.38;5057076;28;45425;-76
2021/06/06 03:07:20;;;;;;;;;8.75;8.75;;;;;16.33;57.61;102148.94;5056843;28;46594;-77
2021/06/06 03:09:45;;;;;;;;;10.25;10.00;;;;;16.34;58.38;102150.72;5056808;28;45091;-81
2021/06/06 03:12:15;;;;;;;;;9.75;9.00;;;;;16.39;57.97;102152.72;5056288;28;45421;-84
2021/06/06 03:14:44;;;;;;;;;9.25;9.25;;;;;16.28;58.05;102146.13;5056256;27;45322;-81
2021/06/06 03:17:13;;;;;;;;;12.00;10.75;;;;;16.14;57.75;102150.78;5057701;28;45752;-85
2021/06/06 03:19:45;;;;;;;;;8.50;8.25;;;;;15.99;58.13;102148.38;5058824;28;45411;-83
2021/06/06 03:22:16;;;;;;;;;9.75;9.00;;;;;15.99;58.28;102142.25;5057816;28;45342;-85
2021/06/06 03:24:48;;;;;;;;;11.00;9.75;;;;;15.92;58.30;102142.00;5040606;28;45365;-80
2021/06/06 03:27:15;;;;;;;;;11.00;11.00;;;;;15.86;58.73;102133.00;5060490;28;46173;-82
2021/06/06 03:30:29;;;;;;;;;8.00;7.75;;;;;15.91;58.38;102132.38;5059015;28;45248;-82
2021/06/06 03:32:57;;;;;;;;;11.25;10.50;;;;;15.94;58.62;102135.13;5053436;28;45451;-81
2021/06/06 03:35:24;;;;;;;;;9.25;9.00;;;;;15.88;58.35;102134.84;5063632;28;45346;-79
2021/06/06 03:37:50;;;;;;;;;8.75;8.75;;;;;15.93;58.77;102146.41;5071605;28;46216;-76
2021/06/06 03:40:17;;;;;;;;;9.00;9.00;;;;;15.99;58.67;102137.94;5062865;28;45896;-78
2021/06/06 03:42:42;;;;;;;;;10.00;9.25;;;;;15.79;58.37;102127.47;5061908;28;45273;-78
2021/06/06 03:45:11;;;;;;;;;10.50;10.50;;;;;15.89;58.83;102140.97;5063205;28;45465;-77
2021/06/06 03:47:37;;;;;;;;;10.50;8.75;;;;;15.90;58.65;102140.16;5055993;28;45330;-78
2021/06/06 03:50:06;;;;;;;;;10.00;10.00;;;;;15.87;58.87;102140.91;5056302;28;45560;-85
2021/06/06 03:52:34;;;;;;;;;12.25;11.00;;;;;15.78;58.57;102132.59;5057605;28;45345;-86
2021/06/06 03:55:04;;;;;;;;;12.00;11.00;;;;;15.61;59.33;102126.63;5057128;28;45596;-80
2021/06/06 03:57:32;;;;;;;;;8.00;7.50;;;;;15.68;59.02;102123.50;5057910;28;46513;-80
2021/06/06 03:59:58;;;;;;;;;8.25;8.25;;;;;15.66;59.57;102132.09;5059763;28;45319;-85
2021/06/06 04:02:23;;;;;;;;;10.75;9.25;;;;;15.51;59.38;102132.25;5059954;28;45466;-84
2021/06/06 04:04:49;;;;;;;;;10.00;10.00;;;;;15.42;59.20;102119.69;5057406;28;45671;-86
2021/06/06 04:07:14;;;;;;;;;9.00;9.00;;;;;15.40;60.03;102127.44;5057120;28;45548;-83
2021/06/06 04:09:40;;;;;;;;;9.75;9.75;;;;;15.32;59.86;102120.97;5056174;28;45330;-77
2021/06/06 04:12:06;;;;;;;;;8.25;8.25;;;;;15.29;59.94;102119.13;5056435;28;45302;-78
2021/06/06 04:14:32;;;;;;;;;8.25;8.25;;;;;15.25;60.10;102118.91;5056364;28;45398;-77
2021/06/06 04:16:57;;;;;;;;;13.00;10.75;;;;;15.31;60.06;102119.19;5055256;28;46056;-77
2021/06/06 04:19:23;;;;;;;;;8.00;8.00;;;;;15.37;60.15;102129.94;5055504;28;45388;-77
2021/06/06 04:21:48;;;;;;;;;8.00;8.00;;;;;15.25;59.56;102117.19;5056025;28;45249;-77
2021/06/06 04:24:14;;;;;;;;;9.75;8.00;;;;;15.39;59.47;102125.66;5056817;28;45234;-80
2021/06/06 04:26:40;;;;;;;;;9.00;9.00;;;;;15.49;59.16;102134.81;5061104;28;45235;-80
2021/06/06 04:29:08;;;;;;;;;8.75;8.00;;;;;15.45;59.01;102136.38;5072115;28;45156;-79
2021/06/06 04:31:34;;;;;;;;;8.00;8.00;;;;;15.37;59.33;102129.94;5070011;28;45324;-80
2021/06/06 04:34:00;;;;;;;;;9.75;8.75;;;;;15.31;59.42;102137.44;5064867;28;45530;-87
2021/06/06 04:36:26;;;;;;;;;11.00;8.25;;;;;15.21;59.82;102124.81;5055743;28;47527;-85
2021/06/06 04:38:52;;;;;;;;;11.50;10.25;;;;;15.09;60.19;102125.13;5055162;27;45380;-84
2021/06/06 04:41:18;;;;;;;;;8.50;8.50;;;;;15.11;59.91;102129.59;5056796;28;45491;-86
2021/06/06 04:43:44;;;;;;;;;8.50;8.00;;;;;15.07;59.85;102114.59;5056744;28;45714;-85
2021/06/06 04:46:10;;;;;;;;;8.75;8.75;;;;;15.27;59.82;102135.53;5056558;28;46569;-87
2021/06/06 04:48:39;;;;;;;;;9.25;9.25;;;;;15.19;59.93;102135.19;5056195;28;45689;-88
2021/06/06 04:51:10;;;;;;;;;8.25;8.00;;;;;15.24;59.72;102138.88;5060027;28;45271;-80
2021/06/06 04:53:36;;;;;;;;;9.50;8.75;;;;;15.33;59.39;102130.59;5059125;28;45476;-86
2021/06/06 04:56:03;;;;;;;;;8.00;7.00;;;;;15.43;59.18;102142.38;5060259;28;45273;-85
2021/06/06 04:58:31;;;;;;;;;8.00;8.00;;;;;15.43;58.92;102138.03;5060284;28;46004;-81
2021/06/06 05:00:57;;;;;;;;;8.25;7.25;;;;;15.52;59.16;102144.47;5059745;28;45467;-81
2021/06/06 05:03:23;;;;;;;;;9.00;8.50;;;;;15.38;58.79;102130.81;5060355;28;45616;-78
2021/06/06 05:05:50;;;;;;;;;11.00;9.50;;;;;15.52;58.52;102141.88;5059753;28;45954;-79
2021/06/06 05:08:18;;;;;;;;;9.00;8.75;;;;;15.34;59.43;102121.94;5060462;28;45334;-78
2021/06/06 05:10:45;;;;;;;;;9.50;8.75;;;;;15.47;58.85;102142.56;5061219;28;45385;-79
2021/06/06 05:13:12;;;;;;;;;9.00;8.25;;;;;15.43;59.35;102132.81;5063121;28;45610;-89
2021/06/06 05:15:38;;;;;;;;;8.75;7.25;;;;;15.54;58.76;102142.84;5062182;28;45340;-83
2021/06/06 05:18:04;;;;;;;;;8.25;8.25;;;;;15.53;59.09;102126.31;5061182;28;45289;-84
2021/06/06 05:20:39;;;;;;;;;10.00;7.00;;;;;15.55;58.14;102137.69;5063710;28;45306;-86
2021/06/06 05:23:06;;;;;;;;;8.25;7.50;;;;;15.42;58.70;102131.00;5065500;28;45311;-83
2021/06/06 05:25:34;;;;;;;;;9.50;8.50;;;;;15.43;58.11;102119.75;5065313;28;46364;-80
2021/06/06 05:28:00;;;;;;;;;7.00;7.00;;;;;15.52;58.47;102132.34;5058092;28;45452;-85
2021/06/06 05:30:31;;;;;;;;;11.00;9.75;;;;;15.59;58.06;102136.13;5059332;28;45309;-80
2021/06/06 05:32:57;;;;;;;;;6.75;6.75;;;;;15.55;58.40;102137.69;5062612;28;45299;-84
2021/06/06 05:35:28;;;;;;;;;10.00;9.25;;;;;15.55;58.46;102137.69;5062137;28;46044;-83
2021/06/06 05:37:55;;;;;;;;;7.25;7.25;;;;;15.57;58.42;102138.66;5066612;28;45232;-80
2021/06/06 05:40:22;;;;;;;;;7.75;7.75;;;;;15.59;58.55;102134.41;5060572;28;45495;-80
2021/06/06 05:42:48;;;;;;;;;10.00;9.50;;;;;15.70;58.44;102134.91;5063559;28;45346;-80
2021/06/06 05:45:17;;;;;;;;;9.00;9.00;;;;;15.73;58.19;102139.34;5069471;28;45663;-85
2021/06/06 05:47:43;;;;;;;;;10.25;8.25;;;;;15.79;58.25;102142.22;5070098;28;45890;-82
2021/06/06 05:50:12;;;;;;;;;9.00;8.00;;;;;15.88;57.62;102136.56;5065997;28;45337;-77
2021/06/06 05:52:37;;;;;;;;;9.00;8.00;;;;;15.93;58.08;102140.25;5058254;28;45588;-86
2021/06/06 05:55:06;;;;;;;;;6.00;6.00;;;;;16.01;57.51;102146.75;5060468;28;45812;-83
2021/06/06 05:57:31;;;;;;;;;8.00;8.00;;;;;16.00;57.61;102134.50;5058774;28;45365;-82
2021/06/06 05:59:57;;;;;;;;;9.00;8.00;;;;;16.01;57.21;102141.53;5058588;28;45335;-86
2021/06/06 06:02:23;;;;;;;;;8.50;8.00;;;;;16.07;56.89;102138.28;5060039;28;45631;-87
2021/06/06 06:04:49;;;;;;;;;7.25;6.25;;;;;16.08;57.19;102140.94;5066561;28;45285;-83
2021/06/06 06:07:16;;;;;;;;;7.00;7.00;;;;;16.09;56.77;102149.66;5059750;28;45733;-83
2021/06/06 06:09:42;;;;;;;;;9.50;7.75;;;;;16.06;57.08;102144.31;5058320;28;45458;-83
2021/06/06 06:12:08;;;;;;;;;11.00;8.50;;;;;16.12;56.55;102149.81;5066176;28;45435;-80
2021/06/06 06:14:35;;;;;;;;;8.00;7.00;;;;;16.13;56.88;102155.94;5074467;28;45317;-84
2021/06/06 06:17:01;;;;;;;;;8.75;8.75;;;;;16.09;56.89;102142.75;5080596;28;45040;-85
2021/06/06 06:19:27;;;;;;;;;8.25;8.25;;;;;16.13;56.61;102156.81;5073570;28;45347;-86
2021/06/06 06:21:53;;;;;;;;;6.75;6.00;;;;;16.13;56.47;102153.34;5062766;28;45614;-85
2021/06/06 06:24:19;;;;;;;;;5.25;5.00;;;;;16.11;56.28;102144.53;5057442;28;45395;-83
2021/06/06 06:26:44;;;;;;;;;4.50;4.50;;;;;16.03;56.44;102152.03;5055540;28;45262;-80
2021/06/06 06:29:11;;;;;;;;;5.50;5.50;;;;;15.88;56.14;102152.25;5055531;28;45379;-81
2021/06/06 06:31:37;;;;;;;;;4.00;4.00;;;;;15.74;56.22;102136.81;5055543;27;45593;-78
2021/06/06 06:34:04;;;;;;;;;5.75;4.00;;;;;15.87;56.15;102148.75;5056049;28;46519;-77
2021/06/06 06:36:31;;;;;;;;;8.00;5.25;;;;;15.79;55.73;102153.59;5057068;28;45901;-78
2021/06/06 06:38:57;;;;;;;;;5.00;5.00;;;;;15.79;55.42;102147.47;5056333;28;45480;-80
2021/06/06 06:41:26;;;;;;;;;6.00;4.25;;;;;15.91;55.79;102149.78;5056849;28;45422;-79
2021/06/06 06:43:52;;;;;;;;;3.75;3.00;;;;;15.86;55.39;102154.78;5056038;28;46578;-78
2021/06/06 06:46:18;;;;;;;;;3.50;3.50;;;;;15.99;55.53;102145.78;5055217;28;45391;-78
2021/06/06 06:48:45;;;;;;;;;3.75;3.75;;;;;16.07;55.80;102152.22;5056220;28;45357;-77
2021/06/06 06:51:11;;;;;;;;;6.50;6.00;;;;;16.11;55.71;102152.38;5055835;28;45412;-82
2021/06/06 06:53:36;;;;;;;;;6.00;6.00;;;;;16.13;55.80;102137.66;5057143;28;45686;-82
2021/06/06 06:56:03;;;;;;;;;7.25;6.25;;;;;16.18;55.33;102157.03;5061402;28;45449;-81
2021/06/06 06:58:28;;;;;;;;;5.25;5.00;;;;;16.17;55.66;102155.22;5057493;28;45392;-87
2021/06/06 07:00:55;;;;;;;;;4.00;4.00;;;;;16.35;55.45;102157.75;5057316;28;46040;-84
2021/06/06 07:03:31;;;;;;;;;5.00;4.00;;;;;16.40;55.37;102162.34;5055957;28;47008;-83
2021/06/06 07:05:59;;;;;;;;;5.25;5.00;;;;;16.40;55.48;102164.97;5059036;28;45255;-85
2021/06/06 07:08:28;;;;;;;;;5.00;4.00;;;;;16.38;55.40;102168.34;5074930;28;45478;-85
2021/06/06 07:10:54;;;;;;;;;4.75;3.50;;;;;16.40;55.52;102162.34;5060959;27;45572;-85
2021/06/06 07:13:21;;;;;;;;;4.50;3.50;;;;;16.34;55.78;102155.97;5057030;28;45419;-89
2021/06/06 07:15:48;;;;;;;;;3.00;3.00;;;;;16.47;55.83;102168.72;5055370;28;45796;-85
2021/06/06 07:18:18;;;;;;;;;5.50;5.00;;;;;16.56;55.56;102152.53;5056295;28;45398;-79
2021/06/06 07:20:45;;;;;;;;;4.00;4.00;;;;;16.69;55.02;102161.78;5055176;28;45448;-84
2021/06/06 07:23:13;;;;;;;;;4.75;4.75;;;;;16.70;55.16;102156.59;5054525;28;45382;-82
2021/06/06 07:25:41;;;;;;;;;4.75;4.75;;;;;16.74;55.52;102154.13;5055523;28;45868;-81
2021/06/06 07:28:08;;;;;;;;;3.75;3.25;;;;;16.86;55.82;102163.34;5055046;28;45377;-81
2021/06/06 07:30:38;;;;;;;;;6.25;3.00;;;;;16.84;55.62;102156.28;5057702;28;45551;-81
2021/06/06 07:33:05;;;;;;;;;4.00;3.00;;;;;16.92;55.33;102165.31;5056628;28;45452;-81
2021/06/06 07:35:32;;;;;;;;;6.00;5.00;;;;;16.98;55.31;102154.25;5069848;28;45278;-81
2021/06/06 07:37:59;;;;;;;;;5.00;4.00;;;;;17.02;55.36;102149.19;5074719;28;45373;-82
2021/06/06 07:40:29;;;;;;;;;4.00;3.50;;;;;16.97;55.35;102142.91;5077765;28;45273;-82
2021/06/06 07:42:54;;;;;;;;;9.50;9.00;;;;;17.05;55.12;102134.47;5071532;28;47200;-81
2021/06/06 07:45:22;;;;;;;;;7.50;6.50;;;;;17.24;54.96;102164.88;5067533;28;45328;-83
2021/06/06 07:47:47;;;;;;;;;5.00;3.50;;;;;17.24;54.77;102142.19;5076035;27;44783;-84
2021/06/06 07:50:18;;;;;;;;;6.00;3.50;;;;;17.30;54.74;102152.00;5072847;28;44838;-83
2021/06/06 07:52:44;;;;;;;;;3.75;3.75;;;;;17.39;54.78;102148.84;5074471;28;45490;-81
2021/06/06 07:55:12;;;;;;;;;4.25;2.50;;;;;17.37;54.07;102143.56;5071506;28;45412;-81
2021/06/06 07:57:38;;;;;;;;;4.00;4.00;;;;;17.53;54.24;102152.00;5070443;28;45337;-82
2021/06/06 08:00:09;;;;;;;;;2.75;2.75;;;;;17.54;53.74;102141.59;5063650;28;45336;-80
2021/06/06 08:02:35;;;;;;;;;3.00;3.00;;;;;17.58;53.89;102129.50;5057826;28;45477;-80
2021/06/06 08:05:00;;;;;;;;;2.50;2.00;;;;;17.76;53.28;102158.13;5057312;28;45578;-81
2021/06/06 08:07:28;;;;;;;;;3.00;3.00;;;;;17.68;53.05;102144.72;5059167;28;45534;-84
2021/06/06 08:09:55;;;;;;;;;4.25;3.50;;;;;17.77;53.00;102145.06;5054867;28;45624;-81
2021/06/06 08:12:20;;;;;;;;;3.50;3.50;;;;;17.88;52.85;102145.44;5054069;28;47560;-82
2021/06/06 08:14:46;;;;;;;;;2.25;2.00;;;;;17.90;53.12;102148.13;5055661;28;45602;-81
2021/06/06 08:17:12;;;;;;;;;3.50;3.50;;;;;17.90;52.68;102146.38;5055756;28;45434;-83
2021/06/06 08:19:38;;;;;;;;;2.50;2.50;;;;;17.98;52.51;102140.59;5055296;28;45484;-82
2021/06/06 08:22:04;;;;;;;;;3.25;2.25;;;;;17.99;52.14;102130.13;5056824;28;45582;-83
2021/06/06 08:24:29;;;;;;;;;4.50;4.00;;;;;18.14;51.24;102142.88;5059917;28;45554;-84
2021/06/06 08:26:55;;;;;;;;;3.50;3.50;;;;;18.15;50.77;102141.16;5079109;27;45324;-83
2021/06/06 08:29:20;;;;;;;;;2.25;2.25;;;;;18.21;50.87;102133.50;5065933;28;45326;-83
2021/06/06 08:31:46;;;;;;;;;3.00;3.00;;;;;18.27;50.68;102130.22;5062184;28;46383;-83
2021/06/06 08:34:12;;;;;;;;;3.00;1.25;;;;;18.31;50.43;102125.13;5062324;28;45442;-84
2021/06/06 08:36:46;;;;;;;;;2.00;2.00;;;;;18.39;50.01;102130.63;5059477;28;45374;-83
2021/06/06 08:39:15;;;;;;;;;3.50;3.00;;;;;18.45;50.20;102128.19;5061121;28;45348;-83
2021/06/06 08:41:47;;;;;;;;;2.50;2.25;;;;;18.44;49.34;102118.56;5059085;28;46667;-82
2021/06/06 08:44:57;;;;;;;;;2.50;2.00;;;;;18.55;49.02;102134.66;5061009;28;45469;-84
2021/06/06 08:47:28;;;;;;;;;4.75;3.00;;;;;18.58;49.22;102128.63;5059882;28;45333;-82
2021/06/06 08:49:57;;;;;;;;;2.75;2.75;;;;;18.60;48.94;102125.19;5076209;28;45606;-83
2021/06/06 08:52:39;;;;;;;;;2.75;1.75;;;;;18.67;47.81;102121.03;5062370;28;45330;-84
2021/06/06 08:55:11;;;;;;;;;3.00;1.50;;;;;18.68;46.73;102125.44;5063977;28;45015;-84
2021/06/06 08:57:48;;;;;;;;;2.75;2.75;;;;;18.68;46.22;102120.19;5063213;28;45439;-83
2021/06/06 09:00:30;;;;;;;;;4.00;1.75;;;;;18.83;46.92;102131.19;5065522;28;45376;-84
2021/06/06 09:03:07;;;;;;;;;2.75;1.50;;;;;18.90;46.46;102123.50;5065488;28;46413;-86
2021/06/06 09:05:36;;;;;;;;;1.25;1.25;;;;;18.95;46.69;102117.59;5060567;28;45386;-86
2021/06/06 09:08:05;;;;;;;;;2.00;2.00;;;;;19.11;46.52;102132.09;5065694;28;45335;-81
2021/06/06 09:10:36;;;;;;;;;4.75;3.00;;;;;19.17;46.11;102121.75;5061546;28;45408;-83
2021/06/06 09:13:06;;;;;;;;;1.00;1.00;;;;;19.14;45.26;102116.44;5060924;28;46651;-82
2021/06/06 09:15:33;;;;;;;;;1.50;1.50;;;;;19.29;44.91;102123.88;5062247;28;45755;-81
2021/06/06 09:18:16;;;;;;;;;1.50;1.50;;;;;19.33;45.03;102119.59;5075019;28;45335;-81
2021/06/06 09:20:44;;;;;;;;;3.00;3.00;;;;;19.34;44.05;102106.50;5064679;28;45425;-82
2021/06/06 09:23:29;;;;;;;;;4.75;2.25;;;;;19.41;44.49;102102.31;5062458;28;45744;-81
2021/06/06 09:26:09;;;;;;;;;6.25;5.25;;;;;19.59;44.58;102115.09;5064365;28;45262;-83
2021/06/06 09:28:39;;;;;;;;;3.50;3.25;;;;;19.61;44.31;102115.13;5062731;28;45429;-84
2021/06/06 09:31:17;;;;;;;;;5.25;4.75;;;;;19.61;44.25;102112.50;5070291;28;45274;-84
2021/06/06 09:33:51;;;;;;;;;4.25;4.25;;;;;19.66;44.65;102103.03;5072315;28;46074;-83
2021/06/06 09:36:16;;;;;;;;;4.50;4.50;;;;;19.80;45.01;102116.56;5061715;28;45375;-84
2021/06/06 09:38:43;;;;;;;;;3.75;3.75;;;;;19.89;45.22;102115.97;5058116;28;45327;-84
2021/06/06 09:41:14;;;;;;;;;8.75;6.25;;;;;19.92;45.03;102111.66;5060330;28;45355;-84
2021/06/06 09:43:40;;;;;;;;;4.50;4.50;;;;;19.96;44.90;102107.38;5058840;28;47719;-84
2021/06/06 09:46:12;;;;;;;;;6.25;6.25;;;;;20.16;44.21;102121.06;5062176;28;45619;-83
2021/06/06 09:48:43;;;;;;;;;4.50;4.00;;;;;20.25;44.91;102123.03;5060730;28;45456;-84
2021/06/06 09:51:28;;;;;;;;;4.50;3.00;;;;;20.31;44.64;102124.91;5059736;28;45370;-84
2021/06/06 09:54:05;;;;;;;;;4.50;4.00;;;;;20.24;44.62;102100.22;5039301;28;45403;-85
2021/06/06 09:56:31;;;;;;;;;5.00;4.50;;;;;20.26;44.48;102094.16;5039187;28;45340;-83
2021/06/06 09:59:14;;;;;;;;;6.25;5.75;;;;;20.34;44.96;102117.13;5038324;28;45312;-83
2021/06/06 10:01:53;;;;;;;;;5.00;5.00;;;;;20.28;45.62;102114.34;5037964;28;45559;-84
2021/06/06 10:04:26;;;;;;;;;3.75;3.75;;;;;20.34;45.49;102114.47;5042464;28;48025;-81
2021/06/06 10:06:52;;;;;;;;;7.00;6.00;;;;;20.32;45.42;102119.72;5038743;28;45441;-82
2021/06/06 10:09:17;;;;;;;;;4.25;4.00;;;;;20.42;45.19;102123.44;5036977;28;45332;-82
2021/06/06 10:11:46;;;;;;;;;4.25;4.25;;;;;20.47;45.10;102120.94;5038291;28;45388;-82
2021/06/06 10:14:12;;;;;;;;;6.00;5.00;;;;;20.40;45.51;102115.53;5038807;28;45328;-82
2021/06/06 10:16:42;;;;;;;;;5.00;5.00;;;;;20.46;45.72;102114.78;5039453;28;45360;-82
2021/06/06 10:19:23;;;;;;;;;9.25;8.25;;;;;20.46;45.88;102113.91;5057534;28;45233;-82
2021/06/06 10:21:53;;;;;;;;;5.75;4.50;;;;;20.56;46.28;102106.28;5060288;28;44653;-82
2021/06/06 10:24:30;;;;;;;;;5.00;4.25;;;;;20.41;46.37;102076.94;5052737;28;45510;-81
2021/06/06 10:27:00;;;;;;;;;6.00;4.75;;;;;20.66;46.31;102106.50;5040350;28;45327;-80
2021/06/06 10:29:44;;;;;;;;;11.25;11.25;;;;;20.71;46.59;102104.88;5038221;28;45387;-81
2021/06/06 10:32:24;;;;;;;;;9.00;8.00;;;;;20.78;46.13;102108.56;5038279;28;45495;-81
2021/06/06 10:35:09;;;;;;;;;7.75;7.00;;;;;20.88;45.97;102107.94;5038656;28;45470;-81
2021/06/06 10:37:35;;;;;;;;;6.25;6.25;;;;;20.95;46.35;102112.47;5039376;28;45193;-81
2021/06/06 10:40:07;;;;;;;;;6.75;5.50;;;;;21.05;45.74;102112.66;5038410;28;45271;-81
2021/06/06 10:42:39;;;;;;;;;4.00;3.75;;;;;20.98;46.16;102095.84;5037981;28;44656;-83
2021/06/06 10:45:05;;;;;;;;;6.00;6.00;;;;;21.14;45.75;102111.16;5036094;28;47097;-82
2021/06/06 10:47:36;;;;;;;;;5.75;5.75;;;;;21.11;46.41;102102.28;5052260;28;45726;-81
2021/06/06 10:50:29;;;;;;;;;13.75;13.75;;;;;21.13;46.41;102085.66;5040736;28;45335;-83
2021/06/06 10:53:17;;;;;;;;;9.00;8.00;;;;;21.29;45.39;102109.66;5038354;28;45162;-84
2021/06/06 10:56:01;;;;;;;;;8.00;7.00;;;;;21.44;45.37;102114.38;5036511;28;45428;-82
2021/06/06 10:59:03;;;;;;;;;8.75;7.00;;;;;21.52;45.58;102104.00;5036977;28;45633;-80
2021/06/06 11:01:48;;;;;;;;;8.00;8.00;;;;;21.63;45.60;102084.94;5037823;28;45692;-83
2021/06/06 11:04:15;;;;;;;;;7.25;6.00;;;;;21.93;45.20;102103.94;5039768;28;45367;-83
2021/06/06 11:06:45;;;;;;;;;6.00;4.00;;;;;21.96;44.25;102088.16;5042501;28;45449;-83
2021/06/06 11:09:26;;;;;;;;;6.00;6.00;;;;;22.18;43.78;102101.75;5038869;28;45355;-84
2021/06/06 11:11:58;;;;;;;;;4.50;4.50;;;;;22.25;43.59;102090.41;5038274;28;45244;-82
2021/06/06 11:14:35;;;;;;;;;5.00;5.00;;;;;22.28;43.37;102093.13;5037939;28;45520;-83
2021/06/06 11:17:12;;;;;;;;;4.50;4.25;;;;;22.34;43.69;102080.03;5035940;28;46150;-83
2021/06/06 11:19:37;;;;;;;;;5.00;5.00;;;;;22.31;43.19;102089.63;5037918;28;45535;-83
2021/06/06 11:22:06;;;;;;;;;6.50;6.50;;;;;22.34;42.61;102089.69;5043802;28;45342;-85
2021/06/06 11:24:40;;;;;;;;;8.25;8.25;;;;;22.30;42.86;102094.03;5058970;28;45670;-84
2021/06/06 11:27:16;;;;;;;;;14.00;12.25;;;;;22.36;42.61;102087.97;5055735;28;45599;-82
2021/06/06 11:29:45;;;;;;;;;11.25;9.75;;;;;22.38;42.78;102079.22;5050428;28;45434;-81
2021/06/06 11:32:16;;;;;;;;;8.50;6.00;;;;;22.29;42.76;102086.97;5061515;28;44770;-83
2021/06/06 11:34:51;;;;;;;;;6.00;6.00;;;;;22.29;41.88;102088.75;5059994;28;44796;-83
2021/06/06 11:37:29;;;;;;;;;4.00;3.50;;;;;22.26;42.35;102087.81;5041957;28;45482;-82